北海道・東北TAF電文


新千歳(RJCC)
3/3 2h
TAF RJCC 021710Z 0218/0400 21005KT 9999 FEW015 SCT040 BECMG
0303/0305 30007KT TEMPO 0312/0315 3000 -SHSN BECMG
0312/0315 19005KT=

旭川(RJEC)
3/3 2h
TAF RJEC 021710Z 0218/0400 22010KT 9999 FEW008 BKN020 TEMPO
0218/0221 23018G28KT 1500 -SHSN BLSN FEW003 BKN006 TEMPO
0221/0309 3000 -SHSN TEMPO 0312/0400 1500 -SHSN FEW003
BKN006=

帯広(RJCB)
3/3 2h
TAF RJCB 021710Z 0218/0400 25005KT 9999 FEW020 SCT040 TEMPO
0315/0321 1500 -SHSN FEW003 BKN006=

釧路(RJCK)
3/3 2h
TAF RJCK 021707Z 0218/0400 24011KT 9999 FEW030 BECMG 0306/0309
30006KT=

女満別(RJCM)
3/3 2h
TAF RJCM 021707Z 0218/0400 19007KT 9999 FEW030 BECMG 0303/0305
33005KT BECMG 0309/0312 20006KT=

函館(RJCH)
3/3 2h
TAF RJCH 021707Z 0218/0400 25006KT 9999 FEW010 BKN020 TEMPO
0218/0221 2000 -SHSN FEW005 BKN008 TEMPO 0309/0315 0700
SHSN VV005=

青森(RJSA)
3/3 2h
TAF RJSA 021709Z 0218/0400 21010KT 6000 -SHSN FEW008 BKN015 TEMPO
0218/0300 0700 SHSN FEW002 BKN005 TEMPO 0300/0303 3000
-SHSN TEMPO 0309/0315 1500 -SHSN FEW005 BKN008 TEMPO
0315/0321 0700 SHSN FEW002 BKN005 TEMPO 0321/0400 1500
-SHSN FEW005 BKN008=

秋田(RJSK)
3/3 2h
TAF RJSK 021709Z 0218/0400 12006KT 6000 -SHSN FEW005 BKN012 TEMPO
0218/0301 0500 TSSN FEW001 BKN003 FEW020CB BECMG 0300/0302
28008KT TEMPO 0306/0312 1500 -SHSN FEW005 BKN008 TEMPO
0312/0315 30020G32KT 3000 -SHSN TEMPO 0315/0321 3000 -SHSN=

花巻(RJSI)
3/3 2h
TAF RJSI 021709Z 0218/0400 18010KT 6000 -SHSN FEW008 BKN015 TEMPO
0218/0220 1500 -SHSN FEW005 BKN008 TEMPO 0220/0303 0700
SHSN FEW002 BKN005 TEMPO 0306/0309 4000 -SHSN TEMPO
0309/0315 1500 -SHSN FEW005 BKN008=

仙台(RJSS)
3/3 2h
TAF RJSS 021705Z 0218/0400 21012KT 9999 FEW020 TEMPO 0300/0309
24024G34KT BECMG 0309/0312 28006KT=

福島(RJSF)
3/3 2h
TAF RJSF 021705Z 0218/0400 32008KT 9999 FEW020 BECMG 0218/0220
21010KT BECMG 0306/0309 30012KT TEMPO 0312/0318 4000
-SHSNRA=
Copyright(c) 2014 International Meteorological & Oceanographic Consultants Co,.Ltd. All Rights Reserved. Design by http://f-tpl.com